Time;durP1;ratioP1;P1;durP2;ratioP2;P2;SDS_P1;SDS_P2;PMS_P1;PMS_P2;Temp;Humidity;BMP_temperature;BMP_pressure;BME280_temperature;BME280_humidity;BME280_pressure;Samples;Min_cycle;Max_cycle;Signal;HPM_P1;HPM_P2
2022/05/11 00:00:58;;;;;;;77.53;31.02;;;10.00;99.90;;;;;;5000380;28;20021;-69
2022/05/11 00:03:23;;;;;;;84.72;30.83;;;10.00;99.90;;;;;;5016127;28;20022;-69
2022/05/11 00:05:49;;;;;;;77.38;30.20;;;10.00;99.90;;;;;;5016883;28;20466;-69
2022/05/11 00:08:15;;;;;;;83.50;29.20;;;10.00;99.90;;;;;;5016066;28;20065;-69
2022/05/11 00:10:41;;;;;;;70.65;28.55;;;10.00;99.90;;;;;;5015519;28;20033;-69
2022/05/11 00:13:07;;;;;;;96.85;32.83;;;10.00;99.90;;;;;;5016263;28;20026;-69
2022/05/11 00:15:33;;;;;;;82.32;31.52;;;10.00;99.90;;;;;;5016117;28;20080;-68
2022/05/11 00:17:58;;;;;;;88.30;33.53;;;10.00;99.90;;;;;;5015880;28;20018;-68
2022/05/11 00:20:25;;;;;;;62.92;27.73;;;10.00;99.90;;;;;;5015560;28;20033;-69
2022/05/11 00:22:55;;;;;;;83.85;32.50;;;10.00;99.90;;;;;;5015701;28;20119;-69
2022/05/11 00:25:24;;;;;;;94.05;32.92;;;10.00;99.90;;;;;;5015784;28;20029;-68
2022/05/11 00:27:54;;;;;;;91.70;34.03;;;9.90;99.90;;;;;;5015637;28;20371;-68
2022/05/11 00:30:20;;;;;;;88.10;32.90;;;10.00;99.90;;;;;;5015692;28;20105;-68
2022/05/11 00:32:46;;;;;;;85.22;33.90;;;9.90;99.90;;;;;;5015570;28;20028;-68
2022/05/11 00:35:12;;;;;;;102.03;33.17;;;10.00;99.90;;;;;;5015234;28;20029;-68
2022/05/11 00:37:38;;;;;;;75.32;32.50;;;9.90;99.90;;;;;;5015871;28;20093;-68
2022/05/11 00:40:04;;;;;;;69.05;29.85;;;9.90;99.90;;;;;;5015515;28;20036;-68
2022/05/11 00:42:30;;;;;;;79.18;29.80;;;9.90;99.90;;;;;;5015809;28;20072;-68
2022/05/11 00:44:55;;;;;;;60.78;27.27;;;9.80;99.90;;;;;;5015380;28;20030;-68
2022/05/11 00:47:21;;;;;;;60.63;26.52;;;9.70;99.90;;;;;;5014824;28;20486;-68
2022/05/11 00:49:51;;;;;;;50.53;25.63;;;9.60;99.90;;;;;;5015176;28;20030;-68
2022/05/11 00:52:37;;;;;;;71.57;32.00;;;9.60;99.90;;;;;;5015079;28;20088;-68
2022/05/11 00:55:32;;;;;;;71.18;29.52;;;9.60;99.90;;;;;;5015374;28;20036;-68
2022/05/11 00:58:06;;;;;;;65.75;28.15;;;9.50;99.90;;;;;;5014804;28;20419;-68
2022/05/11 01:00:32;;;;;;;82.45;33.25;;;9.50;99.90;;;;;;5015312;28;20465;-68
2022/05/11 01:03:02;;;;;;;66.97;30.17;;;9.50;99.90;;;;;;5014978;28;20030;-68
2022/05/11 01:05:28;;;;;;;74.80;32.28;;;9.50;99.90;;;;;;5014994;28;20494;-68
2022/05/11 01:07:56;;;;;;;64.20;30.73;;;9.50;99.90;;;;;;5014923;28;20081;-68
2022/05/11 01:10:24;;;;;;;59.15;29.83;;;9.50;99.90;;;;;;5014852;28;20025;-68
2022/05/11 01:12:53;;;;;;;78.35;33.17;;;9.50;99.90;;;;;;5014072;28;20375;-68
2022/05/11 01:15:19;;;;;;;87.22;34.95;;;9.50;99.90;;;;;;5013977;28;20032;-68
2022/05/11 01:17:46;;;;;;;89.45;34.78;;;9.50;99.90;;;;;;5013424;28;20022;-69
2022/05/11 01:20:18;;;;;;;116.25;38.72;;;9.50;99.90;;;;;;5015204;28;20091;-69
2022/05/11 01:23:02;;;;;;;85.38;37.65;;;9.50;99.90;;;;;;5014763;28;20052;-69
2022/05/11 01:25:28;;;;;;;;;;;9.50;99.90;;;;;;5015077;28;20056;-68
2022/05/11 01:28:19;;;;;;;84.05;35.55;;;9.60;99.90;;;;;;5014591;28;20353;-68
2022/05/11 01:31:03;;;;;;;84.40;35.30;;;9.60;99.90;;;;;;5015000;28;20470;-68
2022/05/11 01:33:29;;;;;;;74.32;34.20;;;9.60;99.90;;;;;;5014843;28;20053;-68
2022/05/11 01:36:03;;;;;;;85.32;35.25;;;9.60;99.90;;;;;;5013892;28;20486;-68
2022/05/11 01:38:35;;;;;;;91.72;37.92;;;9.50;99.90;;;;;;5014918;28;20026;-68
2022/05/11 01:41:00;;;;;;;76.22;35.42;;;9.50;99.90;;;;;;5014471;28;20022;-68
2022/05/11 01:43:29;;;;;;;82.85;37.13;;;9.40;99.90;;;;;;5014567;28;20030;-68
2022/05/11 01:45:55;;;;;;;77.80;34.90;;;9.40;99.90;;;;;;5013947;28;20100;-68
2022/05/11 01:48:21;;;;;;;89.43;38.33;;;9.40;99.90;;;;;;5014238;28;20057;-68
2022/05/11 01:50:47;;;;;;;103.25;41.85;;;9.40;99.90;;;;;;5014131;28;20034;-68
2022/05/11 01:53:13;;;;;;;98.60;39.42;;;9.40;99.90;;;;;;5014703;28;20053;-68
2022/05/11 01:55:39;;;;;;;112.88;42.25;;;9.50;99.90;;;;;;5013560;28;20030;-68
2022/05/11 01:58:07;;;;;;;111.43;45.88;;;9.50;99.90;;;;;;5014078;28;20470;-68
2022/05/11 02:00:36;;;;;;;95.20;43.78;;;9.50;99.90;;;;;;5014335;28;20025;-68
2022/05/11 02:03:02;;;;;;;110.68;44.80;;;9.60;99.90;;;;;;5012756;28;20028;-68
2022/05/11 02:08:11;;;;;;;112.55;47.78;;;9.60;99.90;;;;;;5014204;28;20117;-68
2022/05/11 02:10:37;;;;;;;128.30;48.80;;;9.70;99.90;;;;;;5013762;28;20113;-68
2022/05/11 02:13:03;;;;;;;114.18;48.05;;;9.70;99.90;;;;;;5013866;28;20030;-69
2022/05/11 02:15:28;;;;;;;125.63;50.28;;;9.80;99.90;;;;;;5014055;28;20384;-69
2022/05/11 02:17:54;;;;;;;142.52;52.88;;;9.90;99.90;;;;;;5013408;28;20037;-69
2022/05/11 02:20:21;;;;;;;127.28;51.63;;;9.90;99.90;;;;;;5011929;28;20402;-68
2022/05/11 02:22:47;;;;;;;126.65;52.05;;;9.90;99.90;;;;;;5013911;28;20525;-68
2022/05/11 02:25:15;;;;;;;140.45;51.25;;;9.90;99.90;;;;;;5014033;28;20034;-68
2022/05/11 02:27:41;;;;;;;124.00;54.55;;;9.90;99.90;;;;;;5013570;28;20097;-68
2022/05/11 02:30:10;;;;;;;129.07;50.65;;;9.90;99.90;;;;;;5014405;28;20026;-68
2022/05/11 02:32:36;;;;;;;118.05;51.45;;;9.90;99.90;;;;;;5013123;28;20026;-68
2022/05/11 02:35:14;;;;;;;117.63;50.65;;;10.00;99.90;;;;;;5012610;28;20409;-68
2022/05/11 02:37:48;;;;;;;123.70;50.10;;;10.00;99.90;;;;;;5014225;28;20100;-68
2022/05/11 02:40:16;;;;;;;120.57;50.20;;;10.10;99.90;;;;;;5013435;28;20028;-68
2022/05/11 02:42:42;;;;;;;112.07;48.45;;;10.10;99.90;;;;;;5013459;28;20371;-69
2022/05/11 02:45:08;;;;;;;112.57;50.08;;;10.10;99.90;;;;;;5013771;28;20076;-68
2022/05/11 02:47:34;;;;;;;127.65;52.00;;;10.10;99.90;;;;;;5013351;28;20030;-68
2022/05/11 02:50:03;;;;;;;102.88;49.20;;;10.20;99.90;;;;;;5012533;28;20409;-68
2022/05/11 02:52:29;;;;;;;130.60;53.40;;;10.20;99.90;;;;;;5013562;28;20033;-68
2022/05/11 02:54:54;;;;;;;106.80;50.03;;;10.20;99.90;;;;;;5013632;28;20433;-68
2022/05/11 02:57:20;;;;;;;123.22;48.00;;;10.30;99.90;;;;;;5013090;28;20022;-68
2022/05/11 02:59:48;;;;;;;110.82;49.22;;;10.30;99.90;;;;;;5013771;28;20413;-68
2022/05/11 03:02:13;;;;;;;126.90;51.97;;;10.30;99.90;;;;;;5013629;28;20018;-68
2022/05/11 03:04:39;;;;;;;120.63;50.38;;;10.40;99.90;;;;;;5012971;28;20025;-68
2022/05/11 03:07:04;;;;;;;111.63;49.28;;;10.40;99.90;;;;;;5013338;28;20543;-68
2022/05/11 03:09:30;;;;;;;111.50;48.78;;;10.30;99.90;;;;;;5013362;28;20537;-68
2022/05/11 03:11:55;;;;;;;124.22;49.30;;;10.30;99.90;;;;;;5013161;28;20037;-68
2022/05/11 03:14:21;;;;;;;109.50;47.58;;;10.20;99.90;;;;;;5013089;28;20022;-68
2022/05/11 03:16:47;;;;;;;120.70;47.78;;;10.10;99.90;;;;;;5012966;28;20038;-68
2022/05/11 03:19:12;;;;;;;99.75;46.72;;;10.10;99.90;;;;;;5013188;28;20026;-68
2022/05/11 03:21:38;;;;;;;111.32;48.90;;;10.00;99.90;;;;;;5013367;28;20023;-68
2022/05/11 03:24:03;;;;;;;107.10;45.13;;;10.00;99.90;;;;;;5012699;28;20454;-69
2022/05/11 03:26:29;;;;;;;98.65;45.53;;;9.90;99.90;;;;;;5013175;28;20030;-68
2022/05/11 03:28:54;;;;;;;109.63;48.92;;;10.00;99.90;;;;;;5013168;28;20053;-68
2022/05/11 03:31:20;;;;;;;104.68;47.03;;;10.10;99.90;;;;;;5013291;28;20025;-68
2022/05/11 03:36:31;;;;;;;109.70;45.33;;;10.20;99.90;;;;;;5013181;28;20036;-68
2022/05/11 03:38:56;;;;;;;107.40;48.25;;;10.30;99.90;;;;;;5015235;28;20100;-68
2022/05/11 03:41:22;;;;;;;113.18;47.13;;;10.30;99.90;;;;;;5016534;28;20018;-68
2022/05/11 03:43:48;;;;;;;107.60;47.55;;;10.40;99.90;;;;;;5016531;28;20022;-68
2022/05/11 03:46:14;;;;;;;114.28;48.88;;;10.40;99.90;;;;;;5016743;28;20026;-68
2022/05/11 03:48:39;;;;;;;130.60;49.03;;;10.50;99.90;;;;;;5016231;28;20026;-68
2022/05/11 03:51:05;;;;;;;122.82;49.13;;;10.50;99.90;;;;;;5016294;28;20030;-68
2022/05/11 03:53:32;;;;;;;114.60;47.70;;;10.50;99.90;;;;;;5016617;28;20543;-68
2022/05/11 03:55:58;;;;;;;126.97;48.60;;;10.60;99.90;;;;;;5016354;28;20083;-68
2022/05/11 03:58:24;;;;;;;123.75;50.90;;;10.70;99.90;;;;;;5016541;28;20105;-68
2022/05/11 04:00:49;;;;;;;130.25;51.15;;;10.70;99.90;;;;;;5015674;28;20022;-68
2022/05/11 04:03:15;;;;;;;114.60;51.20;;;10.70;99.90;;;;;;5016978;28;20032;-68
2022/05/11 04:05:40;;;;;;;127.22;50.40;;;10.80;99.90;;;;;;5016239;28;20165;-68
2022/05/11 04:08:06;;;;;;;122.68;51.13;;;10.80;99.90;;;;;;5015876;28;20029;-68
2022/05/11 04:10:32;;;;;;;109.55;48.25;;;10.90;99.90;;;;;;5015513;28;20076;-68
2022/05/11 04:13:00;;;;;;;113.93;46.78;;;10.90;99.90;;;;;;5015971;28;20029;-68
2022/05/11 04:15:26;;;;;;;130.57;51.78;;;10.90;99.90;;;;;;5015861;28;20030;-68
2022/05/11 04:17:51;;;;;;;112.85;49.58;;;10.90;99.90;;;;;;5015866;28;20101;-68
2022/05/11 04:20:18;;;;;;;121.38;48.90;;;10.90;99.90;;;;;;5015816;28;20077;-68
2022/05/11 04:22:44;;;;;;;113.68;50.60;;;10.90;99.90;;;;;;5015596;28;20474;-68
2022/05/11 04:25:14;;;;;;;109.50;48.40;;;10.90;99.90;;;;;;5015847;28;20030;-68
2022/05/11 04:27:40;;;;;;;122.00;48.95;;;11.00;99.90;;;;;;5015635;28;20437;-68
2022/05/11 04:30:07;;;;;;;118.68;51.42;;;11.00;99.90;;;;;;5015665;28;20113;-68
2022/05/11 04:32:33;;;;;;;112.97;46.97;;;11.10;99.90;;;;;;5015025;28;20072;-68
2022/05/11 04:34:59;;;;;;;131.82;50.03;;;11.10;99.90;;;;;;5015698;28;20062;-69
2022/05/11 04:37:24;;;;;;;105.30;47.42;;;11.10;99.90;;;;;;5015773;28;20073;-69
2022/05/11 04:39:50;;;;;;;108.68;46.28;;;11.20;99.90;;;;;;5015699;28;20497;-69
2022/05/11 04:42:16;;;;;;;93.72;44.75;;;11.10;99.90;;;;;;5030632;28;20021;-69
2022/05/11 04:44:42;;;;;;;112.53;45.83;;;11.20;99.90;;;;;;5014993;28;20022;-69
2022/05/11 04:47:10;;;;;;;110.18;44.15;;;11.10;99.90;;;;;;5015536;28;20459;-69
2022/05/11 04:49:36;;;;;;;111.38;47.03;;;11.20;99.90;;;;;;5014237;28;20018;-69
2022/05/11 04:52:10;;;;;;;107.45;43.75;;;11.20;99.90;;;;;;5014870;28;20502;-69
2022/05/11 04:54:38;;;;;;;87.75;42.25;;;11.30;99.90;;;;;;5014990;28;20046;-69
2022/05/11 04:57:05;;;;;;;95.00;42.80;;;11.30;99.90;;;;;;5014950;28;20034;-69
2022/05/11 04:59:32;;;;;;;126.78;46.92;;;11.30;99.90;;;;;;5015372;28;20029;-69
2022/05/11 05:01:59;;;;;;;104.82;43.95;;;11.30;99.90;;;;;;5014952;28;20386;-69
2022/05/11 05:04:28;;;;;;;93.93;41.35;;;11.40;99.90;;;;;;5015226;28;20048;-68
2022/05/11 05:06:54;;;;;;;90.00;42.75;;;11.50;99.90;;;;;;5014489;28;20062;-68
2022/05/11 05:09:20;;;;;;;93.32;41.53;;;11.60;99.90;;;;;;5014865;28;20530;-68
2022/05/11 05:11:46;;;;;;;93.93;40.50;;;11.60;99.90;;;;;;5014885;28;20034;-68
2022/05/11 05:14:12;;;;;;;87.75;42.30;;;11.70;99.90;;;;;;5014751;28;20105;-68
2022/05/11 05:16:38;;;;;;;86.25;38.92;;;11.80;99.90;;;;;;5014645;28;20029;-68
2022/05/11 05:19:05;;;;;;;84.07;37.80;;;11.90;99.90;;;;;;5015032;28;20059;-68
2022/05/11 05:21:31;;;;;;;88.63;38.42;;;12.00;99.90;;;;;;5014021;28;20056;-68
2022/05/11 05:23:57;;;;;;;74.82;37.78;;;12.10;99.90;;;;;;5014780;28;20057;-68
2022/05/11 05:26:23;;;;;;;63.00;34.50;;;12.20;99.90;;;;;;5014832;28;20482;-68
2022/05/11 05:31:33;;;;;;;68.28;34.90;;;12.40;99.90;;;;;;5014622;28;20060;-68
2022/05/11 05:34:01;;;;;;;68.20;34.88;;;12.40;99.90;;;;;;5014975;28;20070;-68
2022/05/11 05:36:28;;;;;;;59.47;32.08;;;12.40;99.90;;;;;;5014891;28;20029;-68
2022/05/11 05:38:55;;;;;;;62.47;31.63;;;12.40;99.90;;;;;;5013882;28;20014;-69
2022/05/11 05:41:21;;;;;;;65.53;32.25;;;12.40;99.90;;;;;;5014593;28;20045;-69
2022/05/11 05:43:47;;;;;;;67.50;31.05;;;12.50;99.90;;;;;;5014288;28;20022;-69
2022/05/11 05:46:16;;;;;;;70.72;31.05;;;12.50;99.90;;;;;;5014227;28;20030;-69
2022/05/11 05:48:42;;;;;;;62.10;30.50;;;12.60;99.90;;;;;;5014489;28;20034;-69
2022/05/11 05:51:10;;;;;;;52.67;26.63;;;12.90;99.90;;;;;;5014107;28;20112;-68
2022/05/11 05:53:37;;;;;;;49.58;26.23;;;12.90;99.90;;;;;;5014012;28;20121;-69
2022/05/11 05:56:03;;;;;;;49.53;26.13;;;13.00;99.90;;;;;;5013973;28;20032;-69
2022/05/11 05:58:29;;;;;;;38.13;21.63;;;13.10;99.90;;;;;;5013795;28;20018;-69
2022/05/11 06:00:55;;;;;;;39.78;21.83;;;13.00;99.90;;;;;;5013835;28;20091;-69
2022/05/11 06:03:23;;;;;;;50.05;22.75;;;13.00;99.90;;;;;;5014002;28;20032;-69
2022/05/11 06:05:48;;;;;;;49.38;24.40;;;13.10;99.90;;;;;;5013930;28;20080;-69
2022/05/11 06:08:16;;;;;;;38.25;20.60;;;13.20;99.90;;;;;;5014169;28;20022;-69
2022/05/11 06:10:42;;;;;;;40.72;21.80;;;13.30;99.90;;;;;;5014475;28;20034;-69
2022/05/11 06:13:08;;;;;;;36.58;20.80;;;13.50;99.90;;;;;;5013362;28;20080;-69
2022/05/11 06:15:35;;;;;;;46.85;22.13;;;13.60;99.90;;;;;;5014031;28;20036;-68
2022/05/11 06:18:01;;;;;;;32.55;18.65;;;13.70;99.90;;;;;;5013845;28;20386;-68
2022/05/11 06:20:27;;;;;;;40.78;20.17;;;13.80;99.90;;;;;;5013828;28;20079;-68
2022/05/11 06:22:53;;;;;;;36.50;19.88;;;13.70;99.90;;;;;;5013641;28;20105;-68
2022/05/11 06:25:20;;;;;;;31.00;18.35;;;13.90;99.90;;;;;;5013546;28;20025;-68
2022/05/11 06:27:46;;;;;;;34.40;19.08;;;13.90;99.90;;;;;;5013840;28;20100;-69
2022/05/11 06:30:12;;;;;;;29.88;19.08;;;14.00;99.90;;;;;;5013934;28;20115;-69
2022/05/11 06:32:38;;;;;;;38.33;21.05;;;14.00;99.90;;;;;;5011784;28;20022;-68
2022/05/11 06:35:04;;;;;;;34.20;18.27;;;14.30;99.90;;;;;;5014002;28;20037;-68
2022/05/11 06:37:30;;;;;;;31.48;18.77;;;14.60;99.90;;;;;;5013402;28;20034;-68
2022/05/11 06:39:56;;;;;;;33.33;17.05;;;14.80;99.90;;;;;;5013740;28;20033;-68
2022/05/11 06:42:22;;;;;;;31.10;17.42;;;14.80;99.90;;;;;;5013133;28;20029;-68
2022/05/11 06:44:49;;;;;;;33.53;17.55;;;15.00;99.90;;;;;;5013540;28;20471;-68
2022/05/11 06:47:15;;;;;;;31.67;17.27;;;15.10;99.90;;;;;;5013497;28;20093;-68
2022/05/11 06:49:40;;;;;;;30.33;14.38;;;15.30;99.90;;;;;;5013453;28;20563;-68
2022/05/11 06:52:06;;;;;;;24.25;15.75;;;15.30;99.90;;;;;;5012739;28;20037;-68
2022/05/11 07:00:00;;;;;;;27.83;15.95;;;15.30;99.90;;;;;;5013606;28;19913;-69
2022/05/11 07:02:26;;;;;;;27.35;16.35;;;15.30;99.90;;;;;;5012997;28;20026;-69
2022/05/11 07:04:51;;;;;;;30.50;15.20;;;15.30;99.90;;;;;;5013506;28;20030;-69
2022/05/11 07:07:18;;;;;;;27.02;15.10;;;15.20;99.90;;;;;;5013467;28;20034;-70
2022/05/11 07:09:44;;;;;;;28.10;16.42;;;15.20;99.90;;;;;;5013620;28;20449;-70
2022/05/11 07:12:21;;;;;;;28.08;16.10;;;15.40;99.90;;;;;;5013314;28;20076;-70
2022/05/11 07:14:53;;;;;;;33.00;15.38;;;15.50;99.90;;;;;;5016255;28;20020;-69
2022/05/11 07:17:42;;;;;;;26.58;14.90;;;15.60;99.90;;;;;;5017091;28;20377;-68
2022/05/11 07:20:18;;;;;;;35.08;15.38;;;15.60;99.90;;;;;;5016947;28;20049;-69
2022/05/11 07:22:44;;;;;;;31.27;14.75;;;15.50;99.90;;;;;;5016354;28;20504;-69
2022/05/11 07:25:13;;;;;;;32.28;16.48;;;15.70;99.90;;;;;;5016700;28;20034;-69
2022/05/11 07:27:39;;;;;;;30.88;15.50;;;15.70;99.90;;;;;;5017714;28;20427;-69
2022/05/11 07:30:08;;;;;;;25.40;14.93;;;15.70;99.90;;;;;;5016929;28;20084;-68
2022/05/11 07:32:34;;;;;;;27.77;14.35;;;15.70;99.90;;;;;;5015939;28;20109;-68
2022/05/11 07:35:00;;;;;;;30.05;14.93;;;15.70;99.90;;;;;;5016607;28;20118;-68
2022/05/11 07:37:26;;;;;;;23.08;13.45;;;15.80;99.90;;;;;;5017220;28;20022;-68
2022/05/11 07:39:52;;;;;;;24.80;12.93;;;15.80;99.90;;;;;;5016699;28;20076;-68
2022/05/11 07:42:19;;;;;;;27.92;13.43;;;15.80;99.90;;;;;;5016730;28;20022;-68
2022/05/11 07:44:44;;;;;;;24.75;12.48;;;15.80;99.90;;;;;;5016808;28;20041;-68
2022/05/11 07:47:10;;;;;;;24.77;11.95;;;15.80;99.90;;;;;;5015889;28;20049;-68
2022/05/11 07:49:37;;;;;;;19.02;11.98;;;15.70;99.90;;;;;;5016416;28;20026;-68
2022/05/11 07:52:04;;;;;;;22.48;12.50;;;15.70;99.90;;;;;;5016744;28;20040;-68
2022/05/11 07:54:30;;;;;;;24.15;12.40;;;15.70;99.90;;;;;;5016402;28;20071;-68
2022/05/11 07:59:52;;;;;;;24.30;11.15;;;16.00;99.90;;;;;;5015922;28;20528;-69
2022/05/11 08:02:18;;;;;;;22.75;11.57;;;16.20;99.90;;;;;;5016168;28;20092;-69
2022/05/11 08:04:44;;;;;;;24.67;11.50;;;16.10;99.90;;;;;;5016655;28;20117;-69
2022/05/11 08:07:13;;;;;;;24.73;12.60;;;16.10;99.90;;;;;;5016125;28;20470;-69
2022/05/11 08:09:38;;;;;;;21.80;12.20;;;16.00;99.90;;;;;;5015516;28;20103;-69
2022/05/11 08:12:04;;;;;;;23.40;12.77;;;15.90;99.90;;;;;;5016019;28;20037;-69
2022/05/11 08:14:30;;;;;;;26.65;13.10;;;16.00;99.90;;;;;;5015926;28;20030;-69
2022/05/11 08:16:56;;;;;;;25.05;12.23;;;16.10;99.90;;;;;;5015346;28;20041;-69
2022/05/11 08:19:24;;;;;;;22.65;12.02;;;16.10;99.90;;;;;;5016104;28;20022;-68
2022/05/11 08:21:51;;;;;;;24.00;11.85;;;16.20;99.90;;;;;;5015906;28;20042;-68
2022/05/11 08:24:17;;;;;;;21.98;10.27;;;16.20;99.90;;;;;;5015523;28;20466;-68
2022/05/11 08:26:46;;;;;;;24.60;12.60;;;16.30;99.90;;;;;;5016354;28;20450;-68
2022/05/11 08:33:19;;;;;;;35.28;12.27;;;16.40;99.90;;;;;;5015193;28;20025;-68
2022/05/11 08:34:42;;;;;;;21.40;10.35;;;16.50;99.90;;;;;;5015590;28;20037;-68
2022/05/11 08:37:07;;;;;;;31.65;11.85;;;16.30;99.90;;;;;;5015715;28;20390;-68
2022/05/11 08:39:33;;;;;;;30.63;11.27;;;16.30;99.90;;;;;;5015423;28;20026;-69
2022/05/11 08:42:00;;;;;;;28.77;11.27;;;16.60;99.90;;;;;;5015278;28;20022;-69
2022/05/11 08:44:33;;;;;;;25.08;11.40;;;16.90;99.90;;;;;;5014951;28;20045;-69
2022/05/11 08:47:30;;;;;;;23.33;10.37;;;17.10;99.90;;;;;;5015329;28;20026;-69
2022/05/11 08:50:16;;;;;;;32.88;11.20;;;17.30;99.90;;;;;;5013915;28;20120;-69
2022/05/11 08:52:56;;;;;;;23.90;11.02;;;16.90;99.90;;;;;;5015005;28;20041;-68
2022/05/11 08:55:42;;;;;;;30.95;12.15;;;16.90;99.90;;;;;;5015672;28;20386;-68
2022/05/11 08:58:35;;;;;;;28.98;12.82;;;16.50;99.90;;;;;;5015606;28;20389;-68
2022/05/11 09:01:01;;;;;;;35.60;15.13;;;16.10;99.90;;;;;;5007166;28;20096;-68
2022/05/11 09:03:34;;;;;;;28.60;12.48;;;15.90;99.90;;;;;;5014993;28;20117;-68
2022/05/11 09:06:03;;;;;;;24.35;12.07;;;15.90;99.90;;;;;;5014641;28;20083;-68
2022/05/11 09:08:37;;;;;;;33.28;11.57;;;16.00;99.90;;;;;;5014865;28;20478;-68
2022/05/11 09:11:05;;;;;;;28.98;11.00;;;15.80;99.90;;;;;;5015078;28;20064;-68
2022/05/11 09:13:30;;;;;;;29.77;12.80;;;15.80;99.90;;;;;;5014619;28;20022;-68
2022/05/11 09:16:00;;;;;;;24.80;12.00;;;15.70;99.90;;;;;;5014844;28;20474;-69
2022/05/11 09:18:33;;;;;;;34.47;12.25;;;15.60;99.90;;;;;;5015067;28;20093;-69
2022/05/11 09:21:01;;;;;;;33.50;12.90;;;15.50;99.90;;;;;;5014660;28;20067;-69
2022/05/11 09:23:31;;;;;;;40.70;13.48;;;15.50;99.90;;;;;;5014820;28;20117;-69
2022/05/11 09:26:11;;;;;;;32.90;12.98;;;15.50;99.90;;;;;;5013499;28;20026;-69
2022/05/11 09:28:39;;;;;;;24.25;12.52;;;15.50;99.90;;;;;;5014904;28;20077;-69
2022/05/11 09:31:24;;;;;;;34.28;12.73;;;15.50;99.90;;;;;;5014670;28;20033;-68
2022/05/11 09:34:00;;;;;;;40.67;12.98;;;15.40;99.90;;;;;;5014779;28;20029;-69
2022/05/11 09:36:52;;;;;;;27.58;11.90;;;15.50;99.90;;;;;;5013238;28;20386;-69
2022/05/11 09:39:18;;;;;;;30.17;12.00;;;15.50;99.90;;;;;;5014665;28;20030;-69
2022/05/11 09:41:53;;;;;;;32.20;11.40;;;15.40;99.90;;;;;;5014353;28;20446;-69
2022/05/11 09:44:26;;;;;;;28.88;12.73;;;15.50;99.90;;;;;;5014289;28;20018;-69
2022/05/11 09:46:54;;;;;;;27.88;10.95;;;15.60;99.90;;;;;;5014273;28;20034;-70
2022/05/11 09:49:19;;;;;;;37.53;12.70;;;15.70;99.90;;;;;;5012967;28;20053;-69
2022/05/11 09:51:50;;;;;;;22.75;10.85;;;16.00;99.90;;;;;;5014014;28;20426;-69
2022/05/11 09:54:19;;;;;;;37.92;12.38;;;16.30;99.90;;;;;;5014081;28;20075;-69
2022/05/11 09:56:57;;;;;;;41.67;11.73;;;16.60;99.90;;;;;;5014306;28;20036;-69
2022/05/11 09:59:26;;;;;;;26.40;12.32;;;16.80;99.90;;;;;;5013568;28;20025;-69
2022/05/11 10:02:22;;;;;;;25.27;10.55;;;16.80;99.90;;;;;;5014276;28;20037;-69
2022/05/11 10:04:51;;;;;;;27.90;11.20;;;16.70;99.90;;;;;;5014386;28;20026;-69
2022/05/11 10:07:20;;;;;;;30.52;10.90;;;16.90;99.90;;;;;;5013979;28;20076;-69
2022/05/11 10:09:52;;;;;;;32.50;11.52;;;17.00;99.90;;;;;;5013587;28;20044;-69
2022/05/11 10:12:23;;;;;;;22.98;9.30;;;17.00;99.90;;;;;;5014014;28;20022;-69
2022/05/11 10:23:22;;;;;;;31.55;10.43;;;17.90;99.90;;;;;;5013617;28;20033;-68
2022/05/11 10:25:55;;;;;;;30.10;9.80;;;18.00;99.90;;;;;;5013818;28;20029;-68
2022/05/11 10:28:54;;;;;;;31.90;12.55;;;17.70;99.90;;;;;;5013952;28;20470;-68
2022/05/11 10:31:26;;;;;;;30.35;10.80;;;17.30;99.90;;;;;;5013178;28;20034;-68
2022/05/11 10:34:08;;;;;;;26.90;10.55;;;17.10;99.90;;;;;;5014156;28;20034;-69
2022/05/11 10:36:59;;;;;;;35.42;12.32;;;17.00;99.90;;;;;;5013779;28;20045;-69
2022/05/11 10:39:34;;;;;;;38.20;11.18;;;16.70;99.90;;;;;;5013041;28;20081;-68
2022/05/11 10:42:12;;;;;;;37.95;12.18;;;16.50;99.90;;;;;;5013683;28;20493;-68
2022/05/11 10:45:05;;;;;;;27.00;11.45;;;16.30;99.90;;;;;;5013680;28;20022;-68
2022/05/11 10:48:00;;;;;;;35.93;12.27;;;16.20;99.90;;;;;;5015001;28;20153;-69
2022/05/11 10:50:35;;;;;;;31.83;11.15;;;16.20;99.90;;;;;;4999722;28;20123;-68
2022/05/11 10:53:19;;;;;;;47.90;12.88;;;16.40;99.90;;;;;;5016928;28;20033;-68
2022/05/11 10:55:53;;;;;;;26.10;9.98;;;16.60;99.90;;;;;;5017630;28;20022;-68
2022/05/11 10:59:04;;;;;;;30.38;10.75;;;16.60;99.90;;;;;;5017684;28;20018;-68
2022/05/11 11:01:45;;;;;;;28.55;8.40;;;16.30;99.90;;;;;;5015095;28;20038;-68
2022/05/11 11:04:48;;;;;;;31.13;9.07;;;16.30;99.90;;;;;;5017319;28;20022;-68
2022/05/11 11:07:28;;;;;;;31.98;10.75;;;16.20;99.90;;;;;;5017233;28;20037;-69
2022/05/11 11:10:13;;;;;;;32.90;9.05;;;16.30;99.90;;;;;;5017413;28;20026;-69
2022/05/11 11:12:56;;;;;;;31.38;8.93;;;16.40;99.90;;;;;;5017090;28;20076;-69
2022/05/11 11:15:26;;;;;;;26.08;7.72;;;16.50;99.90;;;;;;5016647;28;20018;-69
2022/05/11 11:17:55;;;;;;;19.92;8.43;;;16.60;99.90;;;;;;5016965;28;20034;-69
2022/05/11 11:20:22;;;;;;;23.33;7.95;;;16.50;99.90;;;;;;5032536;28;20026;-68
2022/05/11 11:23:07;;;;;;;38.40;8.52;;;16.20;99.90;;;;;;5016298;28;20025;-68
2022/05/11 11:25:46;;;;;;;41.25;10.38;;;15.70;99.90;;;;;;5016797;28;20022;-68
2022/05/11 11:28:15;;;;;;;36.30;9.10;;;15.60;99.90;;;;;;5017108;28;20033;-68
2022/05/11 11:31:13;;;;;;;34.53;10.07;;;15.40;99.90;;;;;;5016362;28;20026;-68
2022/05/11 11:34:02;;;;;;;41.80;10.43;;;15.30;99.90;;;;;;5013052;28;20402;-68
2022/05/11 11:36:35;;;;;;;33.40;8.55;;;15.20;99.90;;;;;;5016526;28;20076;-68
2022/05/11 11:39:03;;;;;;;36.65;9.82;;;15.20;99.90;;;;;;5016863;28;20025;-68
2022/05/11 11:41:42;;;;;;;28.75;9.25;;;15.30;99.90;;;;;;5016699;28;20437;-68
2022/05/11 11:44:30;;;;;;;36.72;10.38;;;15.40;99.90;;;;;;5017181;28;20022;-68
2022/05/11 11:46:57;;;;;;;27.17;9.43;;;15.60;99.90;;;;;;5016450;28;20045;-69
2022/05/11 11:49:26;;;;;;;40.42;10.05;;;15.70;99.90;;;;;;5016695;28;20105;-69
2022/05/11 11:51:57;;;;;;;28.25;8.32;;;16.00;99.90;;;;;;5046030;23;20493;-73
2022/05/11 11:54:37;;;;;;;35.72;9.18;;;16.00;99.90;;;;;;4997322;28;20034;-73
2022/05/11 11:57:04;;;;;;;46.70;10.13;;;16.20;99.90;;;;;;4996302;28;20030;-72
2022/05/11 11:59:30;;;;;;;44.75;8.68;;;16.50;99.90;;;;;;4996307;28;20027;-74
2022/05/11 12:02:15;;;;;;;27.52;6.68;;;16.40;99.90;;;;;;4996828;28;20045;-74
2022/05/11 12:04:46;;;;;;;19.50;6.63;;;16.50;99.90;;;;;;4997150;28;20026;-73
2022/05/11 12:16:04;;;;;;;29.27;6.82;;;16.40;99.90;;;;;;4995749;28;20049;-73
2022/05/11 12:18:35;;;;;;;22.58;6.72;;;16.30;99.90;;;;;;4996230;28;20434;-73
2022/05/11 12:21:04;;;;;;;39.17;8.57;;;16.20;99.90;;;;;;4996874;28;20494;-74
2022/05/11 12:23:34;;;;;;;26.08;6.47;;;15.90;99.90;;;;;;4996453;28;20026;-72
2022/05/11 12:26:11;;;;;;;41.03;8.38;;;15.90;99.90;;;;;;4996297;28;20057;-72
2022/05/11 12:28:42;;;;;;;34.78;8.30;;;15.80;99.90;;;;;;4996054;28;20026;-73
2022/05/11 12:31:09;;;;;;;30.67;6.60;;;16.00;99.90;;;;;;4996778;28;20422;-72
2022/05/11 12:33:39;;;;;;;41.53;9.27;;;15.90;99.90;;;;;;4996557;28;20026;-73
2022/05/11 12:36:07;;;;;;;32.20;7.03;;;16.00;99.90;;;;;;4996680;28;20058;-73
2022/05/11 12:38:34;;;;;;;36.08;7.70;;;16.00;99.90;;;;;;4996388;28;20018;-73
2022/05/11 12:41:08;;;;;;;30.05;7.30;;;16.10;99.90;;;;;;4996259;28;20097;-73
2022/05/11 12:43:36;;;;;;;34.63;7.88;;;16.20;99.90;;;;;;4995679;28;20109;-73
2022/05/11 12:46:09;;;;;;;47.20;9.48;;;16.00;99.90;;;;;;4996434;28;20026;-73
2022/05/11 12:48:56;;;;;;;43.97;8.15;;;16.20;99.90;;;;;;4996080;28;20026;-73
2022/05/11 12:51:33;;;;;;;29.98;6.65;;;16.40;99.90;;;;;;4999788;28;20121;-74
2022/05/11 12:54:01;;;;;;;22.77;5.88;;;16.30;99.90;;;;;;5011100;28;20129;-74
2022/05/11 12:56:38;;;;;;;25.42;5.47;;;16.20;99.90;;;;;;4995952;28;20023;-74
2022/05/11 12:59:25;;;;;;;32.67;5.00;;;16.10;99.90;;;;;;5003440;28;20025;-73
2022/05/11 13:01:51;;;;;;;35.83;6.40;;;16.00;99.90;;;;;;5014904;28;20106;-74
2022/05/11 13:04:20;;;;;;;24.60;5.00;;;15.90;99.90;;;;;;5009976;28;20033;-73
2022/05/11 13:06:49;;;;;;;29.45;5.57;;;15.90;99.90;;;;;;4995676;28;20482;-73
2022/05/11 13:09:33;;;;;;;21.00;4.50;;;15.70;99.90;;;;;;4996846;28;20395;-73
2022/05/11 13:12:01;;;;;;;19.85;4.55;;;15.80;99.90;;;;;;4995903;28;20037;-74
2022/05/11 13:14:43;;;;;;;18.75;4.32;;;15.80;99.90;;;;;;4995297;28;20019;-73
2022/05/11 13:17:19;;;;;;;18.80;4.82;;;15.80;99.90;;;;;;4995607;28;20026;-73
2022/05/11 13:19:59;;;;;;;26.80;5.05;;;16.00;99.90;;;;;;5006693;28;20029;-73